Time;durP1;ratioP1;P1;durP2;ratioP2;P2;SDS_P1;SDS_P2;PMS_P1;PMS_P2;Temp;Humidity;BMP_temperature;BMP_pressure;BME280_temperature;BME280_humidity;BME280_pressure;Samples;Min_cycle;Max_cycle;Signal;HPM_P1;HPM_P2
2023/01/12 00:02:13;;;;;;;17.50;3.13;;;7.80;99.90;;;;;;6273915;22;20012;-86
2023/01/12 00:04:39;;;;;;;22.85;2.65;;;9.00;99.90;;;;;;6273984;22;20016;-88
2023/01/12 00:07:06;;;;;;;21.63;3.17;;;8.30;99.90;;;;;;6246896;22;20074;-86
2023/01/12 00:09:32;;;;;;;16.50;2.65;;;7.90;99.90;;;;;;6246067;22;20019;-86
2023/01/12 00:11:58;;;;;;;24.27;2.92;;;8.40;99.90;;;;;;6220870;22;20078;-84
2023/01/12 00:14:23;;;;;;;23.23;3.35;;;8.90;99.90;;;;;;6246824;22;20031;-86
2023/01/12 00:16:49;;;;;;;19.58;3.53;;;8.40;99.90;;;;;;6246392;22;20028;-86
2023/01/12 00:19:20;;;;;;;28.05;3.13;;;7.90;99.90;;;;;;6246637;22;20456;-86
2023/01/12 00:24:29;;;;;;;21.75;2.78;;;7.90;99.90;;;;;;6246498;22;20055;-84
2023/01/12 00:26:56;;;;;;;23.05;3.33;;;8.40;99.90;;;;;;6246284;22;20070;-84
2023/01/12 00:29:23;;;;;;;36.03;4.07;;;8.90;99.90;;;;;;6274211;22;20019;-85
2023/01/12 00:31:49;;;;;;;26.50;3.65;;;9.10;99.90;;;;;;6273866;22;20021;-85
2023/01/12 00:34:16;;;;;;;27.00;4.13;;;8.80;99.90;;;;;;6246371;22;20444;-85
2023/01/12 00:36:42;;;;;;;29.38;4.20;;;8.80;99.90;;;;;;6274281;22;20015;-85
2023/01/12 00:39:08;;;;;;;27.05;3.53;;;7.90;99.90;;;;;;6273704;22;20124;-85
2023/01/12 00:47:06;;;;;;;21.77;4.15;;;8.50;99.90;;;;;;6246217;22;20028;-86
2023/01/12 00:49:33;;;;;;;24.73;3.60;;;8.90;99.90;;;;;;6247016;22;20098;-89
2023/01/12 00:51:58;;;;;;;22.30;3.28;;;7.90;99.90;;;;;;6274193;22;20038;-84
2023/01/12 00:54:24;;;;;;;19.77;2.92;;;7.90;99.90;;;;;;6246554;22;20032;-87
2023/01/12 00:56:49;;;;;;;24.20;2.92;;;9.00;99.90;;;;;;6273247;22;20047;-83
2023/01/12 00:59:15;;;;;;;25.35;3.55;;;9.10;99.90;;;;;;6274032;22;20023;-85
2023/01/12 01:01:41;;;;;;;23.65;3.47;;;9.00;99.90;;;;;;6274246;22;20016;-82
2023/01/12 01:04:06;;;;;;;29.77;3.95;;;9.20;99.90;;;;;;6245770;22;20019;-86
2023/01/12 01:06:32;;;;;;;15.00;2.35;;;8.00;99.90;;;;;;6246774;22;20014;-89
2023/01/12 01:08:58;;;;;;;12.05;2.40;;;8.90;99.90;;;;;;6273892;22;20023;-85
2023/01/12 01:11:23;;;;;;;18.98;3.28;;;9.00;99.90;;;;;;6273772;22;20761;-88
2023/01/12 01:13:49;;;;;;;18.65;2.53;;;8.70;99.90;;;;;;6273129;22;20098;-86
2023/01/12 01:16:16;;;;;;;13.23;2.50;;;9.00;99.90;;;;;;6247156;22;20019;-84
2023/01/12 01:18:42;;;;;;;21.48;3.38;;;8.00;99.90;;;;;;6274096;22;20011;-90
2023/01/12 01:21:13;;;;;;;23.85;3.65;;;9.00;99.90;;;;;;6273847;22;20130;-89
2023/01/12 01:23:42;;;;;;;29.02;4.15;;;7.90;99.90;;;;;;6246722;22;20034;-88
2023/01/12 01:26:13;;;;;;;20.50;2.80;;;7.90;99.90;;;;;;6273680;22;20035;-89
2023/01/12 01:28:40;;;;;;;21.58;3.67;;;7.80;99.90;;;;;;6272758;22;20452;-87
2023/01/12 01:31:26;;;;;;;21.38;3.67;;;8.70;99.90;;;;;;6246159;22;20011;-88
2023/01/12 01:33:55;;;;;;;23.75;3.65;;;8.70;99.90;;;;;;6220748;22;20020;-86
2023/01/12 01:36:32;;;;;;;21.60;3.15;;;8.50;99.90;;;;;;6253803;22;20072;-92
2023/01/12 01:38:57;;;;;;;30.75;3.75;;;8.80;99.90;;;;;;6276935;22;20025;-88
2023/01/12 01:41:27;;;;;;;27.15;3.20;;;8.70;99.90;;;;;;6304291;22;20011;-85
2023/01/12 01:44:04;;;;;;;25.85;4.22;;;8.60;99.90;;;;;;6303779;22;20019;-90
2023/01/12 01:49:56;;;;;;;36.03;3.55;;;8.00;99.90;;;;;;6124602;23;20025;-83
2023/01/12 01:52:44;;;;;;;17.15;2.88;;;8.80;99.90;;;;;;6149506;23;20021;-91
2023/01/12 01:55:50;;;;;;;17.08;3.30;;;8.00;99.90;;;;;;6124385;23;20502;-89
2023/01/12 01:58:33;;;;;;;21.55;3.95;;;7.80;99.90;;;;;;6149590;23;20033;-87
2023/01/12 02:00:59;;;;;;;24.23;4.13;;;8.90;99.90;;;;;;6124333;23;20132;-89
2023/01/12 02:03:33;;;;;;;23.80;3.92;;;8.90;99.90;;;;;;6124295;23;20469;-87
2023/01/12 02:05:59;;;;;;;25.08;3.25;;;8.00;99.90;;;;;;6124321;23;20040;-83
2023/01/12 02:08:44;;;;;;;26.08;3.35;;;8.50;99.90;;;;;;6124394;23;20365;-89
2023/01/12 02:17:47;;;;;;;28.35;4.43;;;9.00;99.90;;;;;;6123755;23;20080;-90
2023/01/12 02:21:02;;;;;;;;;;;;;;;;;;;;;
2023/01/12 02:23:58;;;;;;;29.35;4.10;;;8.00;99.90;;;;;;6086974;23;20018;-92
2023/01/12 02:27:07;;;;;;;29.48;4.70;;;7.60;99.90;;;;;;6130330;23;20017;-91
2023/01/12 02:29:57;;;;;;;21.77;3.00;;;7.90;99.90;;;;;;6209197;23;20389;-90
2023/01/12 02:34:00;;;;;;;30.15;4.18;;;8.00;99.90;;;;;;6158578;23;20429;-93
2023/01/12 02:36:46;;;;;;;23.33;3.53;;;8.00;99.90;;;;;;6165691;23;20056;-89
2023/01/12 02:39:38;;;;;;;27.48;4.00;;;7.50;99.90;;;;;;6065273;23;20081;-89
2023/01/12 02:42:40;;;;;;;24.92;4.15;;;8.00;99.90;;;;;;6037268;23;20026;-91
2023/01/12 02:45:56;;;;;;;26.67;4.18;;;7.70;99.90;;;;;;6037054;23;20033;-88
2023/01/12 02:48:25;;;;;;;29.88;4.38;;;8.00;99.90;;;;;;5980430;23;20028;-87
2023/01/12 02:50:56;;;;;;;28.27;3.70;;;7.50;99.90;;;;;;5980403;23;20068;-89
2023/01/12 02:53:43;;;;;;;25.63;3.70;;;8.00;99.90;;;;;;6003821;23;20020;-88
2023/01/12 02:56:12;;;;;;;25.77;3.78;;;8.00;99.90;;;;;;5999916;23;20024;-87
2023/01/12 02:58:45;;;;;;;24.30;4.15;;;8.80;99.90;;;;;;5976005;24;20026;-88
2023/01/12 03:01:16;;;;;;;27.23;3.97;;;9.10;99.90;;;;;;5975787;24;20030;-89
2023/01/12 03:03:49;;;;;;;25.35;3.83;;;7.70;99.90;;;;;;5952114;24;20457;-89
2023/01/12 03:06:24;;;;;;;30.85;3.92;;;7.50;99.90;;;;;;5952757;24;20039;-89
2023/01/12 03:08:52;;;;;;;30.35;4.80;;;8.10;99.90;;;;;;5975942;24;20038;-89
2023/01/12 03:11:21;;;;;;;28.77;3.97;;;8.60;99.90;;;;;;5977651;24;20674;-87
2023/01/12 03:13:47;;;;;;;29.55;3.85;;;9.20;99.90;;;;;;5954212;24;20035;-86
2023/01/12 03:16:32;;;;;;;31.48;4.72;;;9.00;99.90;;;;;;6014337;23;20473;-91
2023/01/12 03:19:16;;;;;;;30.95;5.07;;;8.70;99.90;;;;;;6083578;23;20049;-88
2023/01/12 03:21:52;;;;;;;25.38;3.92;;;8.20;99.90;;;;;;6130550;23;20017;-88
2023/01/12 03:24:31;;;;;;;27.60;4.53;;;8.20;99.90;;;;;;6274579;22;20072;-88
2023/01/12 03:27:46;;;;;;;17.55;3.75;;;8.20;99.90;;;;;;6305792;22;20033;-85
2023/01/12 03:30:27;;;;;;;24.83;4.28;;;8.20;99.90;;;;;;6155183;23;20017;-87
2023/01/12 03:32:53;;;;;;;18.08;3.55;;;8.20;99.90;;;;;;6155581;23;20464;-83
2023/01/12 03:35:24;;;;;;;20.63;4.18;;;9.40;99.90;;;;;;6180305;23;20052;-88
2023/01/12 03:37:59;;;;;;;20.40;3.58;;;8.80;99.90;;;;;;6154906;23;20023;-84
2023/01/12 03:41:01;;;;;;;20.70;3.45;;;9.20;99.90;;;;;;6155142;23;20096;-85
2023/01/12 03:43:31;;;;;;;20.70;4.32;;;8.30;99.90;;;;;;6154863;23;20025;-85
2023/01/12 03:46:16;;;;;;;20.83;3.60;;;8.30;99.90;;;;;;6180124;23;20549;-86
2023/01/12 03:49:05;;;;;;;23.45;3.65;;;8.40;99.90;;;;;;6154523;23;20021;-83
2023/01/12 03:51:35;;;;;;;21.10;3.22;;;8.40;99.90;;;;;;6155080;23;20036;-87
2023/01/12 03:54:03;;;;;;;23.25;3.83;;;9.40;99.90;;;;;;6154047;23;20037;-84
2023/01/12 03:56:32;;;;;;;27.60;4.65;;;9.50;99.90;;;;;;6179685;23;20024;-85
2023/01/12 03:58:58;;;;;;;27.45;3.70;;;9.50;99.90;;;;;;6154435;23;20443;-86
2023/01/12 04:01:27;;;;;;;28.55;4.10;;;9.20;99.90;;;;;;6268963;22;20015;-85
2023/01/12 04:03:52;;;;;;;30.48;3.50;;;9.40;99.90;;;;;;6304947;22;20497;-84
2023/01/12 04:06:21;;;;;;;35.30;4.15;;;9.00;99.90;;;;;;6304506;22;20011;-91
2023/01/12 04:08:48;;;;;;;29.33;3.75;;;9.10;99.90;;;;;;6251562;22;20023;-86
2023/01/12 04:13:57;;;;;;;20.90;3.58;;;8.50;99.90;;;;;;6276937;22;20160;-85
2023/01/12 04:16:23;;;;;;;18.20;2.75;;;9.00;99.90;;;;;;6304503;22;20046;-85
2023/01/12 04:18:48;;;;;;;20.75;3.40;;;9.10;99.90;;;;;;6277259;22;20011;-90
2023/01/12 04:23:59;;;;;;;19.08;3.42;;;9.10;99.90;;;;;;6277083;22;20047;-84
2023/01/12 04:26:25;;;;;;;19.10;3.13;;;8.50;99.90;;;;;;6251475;22;20031;-84
2023/01/12 04:28:51;;;;;;;11.10;2.45;;;9.60;99.90;;;;;;6304925;22;20020;-85
2023/01/12 04:31:16;;;;;;;15.75;2.28;;;9.50;99.90;;;;;;6304289;22;20351;-83
2023/01/12 04:33:43;;;;;;;14.05;2.10;;;9.40;99.90;;;;;;6276751;22;20348;-86
2023/01/12 04:36:12;;;;;;;16.25;2.60;;;8.50;99.90;;;;;;6250889;22;20050;-86
2023/01/12 04:38:39;;;;;;;12.82;2.28;;;9.40;99.90;;;;;;6304216;22;20028;-82
2023/01/12 04:41:06;;;;;;;11.27;1.67;;;9.10;99.90;;;;;;6302206;22;20015;-86
2023/01/12 04:43:32;;;;;;;14.02;1.98;;;9.40;99.90;;;;;;6304098;22;20026;-87
2023/01/12 04:45:58;;;;;;;13.18;1.83;;;9.40;99.90;;;;;;6251666;22;20023;-87
2023/01/12 04:48:23;;;;;;;13.95;2.08;;;8.40;99.90;;;;;;6276911;22;20322;-81
2023/01/12 04:50:49;;;;;;;11.57;1.90;;;9.30;99.90;;;;;;6304155;22;20344;-84
2023/01/12 04:53:15;;;;;;;13.68;2.15;;;9.40;99.90;;;;;;6302119;22;20023;-84
2023/01/12 04:55:42;;;;;;;10.05;1.70;;;8.40;99.90;;;;;;6302448;22;20015;-86
2023/01/12 04:58:14;;;;;;;8.60;1.20;;;8.30;99.90;;;;;;6277149;22;20011;-87
2023/01/12 05:00:40;;;;;;;8.43;1.50;;;8.30;99.90;;;;;;6251070;22;20088;-85
2023/01/12 05:03:13;;;;;;;7.38;1.75;;;9.30;99.90;;;;;;6276459;22;20435;-89
2023/01/12 05:05:42;;;;;;;6.90;1.40;;;8.30;99.90;;;;;;6276548;22;20019;-88
2023/01/12 05:11:06;;;;;;;6.43;1.55;;;8.30;99.90;;;;;;6276745;22;20080;-86
2023/01/12 05:13:50;;;;;;;12.25;1.98;;;9.00;99.90;;;;;;6232447;22;20058;-88
2023/01/12 05:16:17;;;;;;;9.93;1.55;;;8.10;99.90;;;;;;6213634;23;20032;-86
2023/01/12 05:18:44;;;;;;;5.78;1.60;;;8.20;99.90;;;;;;6239622;23;20450;-88
2023/01/12 05:21:20;;;;;;;7.28;1.20;;;9.30;99.90;;;;;;6239905;23;20024;-87
2023/01/12 05:23:53;;;;;;;7.00;1.35;;;9.30;99.90;;;;;;6239270;23;20034;-90
2023/01/12 05:26:19;;;;;;;6.78;1.40;;;8.30;99.90;;;;;;6188746;23;20024;-88
2023/01/12 05:28:51;;;;;;;3.30;1.10;;;9.20;99.90;;;;;;6239444;23;20114;-85
2023/01/12 05:31:18;;;;;;;4.25;1.08;;;8.20;99.90;;;;;;6239607;23;20358;-87
2023/01/12 05:33:44;;;;;;;7.80;1.65;;;9.00;99.90;;;;;;6239182;23;20103;-85
2023/01/12 05:36:13;;;;;;;4.88;1.15;;;8.20;99.90;;;;;;6239719;22;20024;-85
2023/01/12 05:38:39;;;;;;;5.57;0.90;;;8.90;99.90;;;;;;6188138;23;20798;-87
2023/01/12 05:41:10;;;;;;;2.75;0.93;;;8.60;99.90;;;;;;6188427;23;20675;-89
2023/01/12 05:43:54;;;;;;;3.70;0.90;;;9.20;99.90;;;;;;6195636;22;20048;-86
2023/01/12 05:46:25;;;;;;;5.45;1.10;;;8.80;99.90;;;;;;6304134;22;20043;-89
2023/01/12 05:48:52;;;;;;;6.45;1.40;;;8.60;99.90;;;;;;6276192;22;20451;-88
2023/01/12 05:51:19;;;;;;;3.85;0.93;;;9.20;99.90;;;;;;6276253;22;20019;-86
2023/01/12 05:53:45;;;;;;;3.72;1.00;;;8.70;99.90;;;;;;6275977;22;20423;-88
2023/01/12 05:56:24;;;;;;;5.30;1.10;;;9.20;99.90;;;;;;6250344;22;20390;-87
2023/01/12 05:59:01;;;;;;;2.70;1.10;;;9.00;99.90;;;;;;6303536;22;20016;-89
2023/01/12 06:01:28;;;;;;;6.28;1.00;;;9.10;99.90;;;;;;6303671;22;20581;-88
2023/01/12 06:03:59;;;;;;;4.10;0.80;;;8.40;99.90;;;;;;6304176;22;20189;-89
2023/01/12 06:06:30;;;;;;;4.45;1.00;;;8.20;99.90;;;;;;6303700;22;20653;-88
2023/01/12 06:09:01;;;;;;;5.20;1.70;;;8.20;99.90;;;;;;6251740;22;20030;-86
2023/01/12 06:14:11;;;;;;;2.45;0.68;;;9.30;99.90;;;;;;6275767;22;20034;-88
2023/01/12 06:16:39;;;;;;;2.38;0.70;;;8.90;99.90;;;;;;6276590;22;20019;-83
2023/01/12 06:19:05;;;;;;;3.08;1.05;;;8.60;99.90;;;;;;6304121;22;20021;-88
2023/01/12 06:21:32;;;;;;;3.90;0.55;;;9.30;99.90;;;;;;6276405;22;20011;-86
2023/01/12 06:23:58;;;;;;;1.88;0.40;;;9.10;99.90;;;;;;6303972;22;20076;-83
2023/01/12 06:26:23;;;;;;;5.25;1.17;;;9.10;99.90;;;;;;6303336;22;20430;-83
2023/01/12 06:28:49;;;;;;;1.90;0.60;;;8.40;99.90;;;;;;6303420;22;20024;-85
2023/01/12 06:31:15;;;;;;;2.95;0.80;;;9.10;99.90;;;;;;6303595;22;20085;-81
2023/01/12 06:33:41;;;;;;;3.70;0.60;;;9.40;99.90;;;;;;6303979;22;20007;-83
2023/01/12 06:36:08;;;;;;;1.55;0.40;;;9.50;99.90;;;;;;6303847;22;20011;-83
2023/01/12 06:38:36;;;;;;;2.50;0.60;;;8.50;99.90;;;;;;6272725;22;20087;-84
2023/01/12 06:42:27;;;;;;;1.38;0.47;;;9.50;99.90;;;;;;6272836;22;20012;-82
2023/01/12 06:43:55;;;;;;;4.63;0.85;;;8.60;99.90;;;;;;6272703;22;20110;-84
2023/01/12 06:46:21;;;;;;;1.85;0.85;;;9.50;99.90;;;;;;6274665;22;20054;-82
2023/01/12 06:48:47;;;;;;;1.90;0.90;;;9.40;99.90;;;;;;6247145;22;20021;-84
2023/01/12 06:51:12;;;;;;;1.63;0.63;;;8.80;99.90;;;;;;6247472;22;20020;-82
2023/01/12 06:53:38;;;;;;;2.30;0.82;;;9.90;99.90;;;;;;6275016;22;20020;-83
2023/01/12 06:56:04;;;;;;;3.10;1.08;;;9.90;99.90;;;;;;6274768;22;20445;-84
2023/01/12 06:58:30;;;;;;;4.90;1.38;;;9.00;99.90;;;;;;6247389;22;20156;-82
2023/01/12 07:01:03;;;;;;;5.63;1.00;;;9.80;99.90;;;;;;6247211;22;20762;-82
2023/01/12 07:03:29;;;;;;;7.78;1.50;;;9.10;99.90;;;;;;6275281;22;20070;-83
2023/01/12 07:05:58;;;;;;;6.43;1.40;;;9.20;99.90;;;;;;6247682;22;20800;-83
2023/01/12 07:08:24;;;;;;;5.57;1.45;;;9.80;99.90;;;;;;6246653;22;20066;-86
2023/01/12 07:10:52;;;;;;;6.20;1.70;;;9.20;99.90;;;;;;6274801;22;20070;-87
2023/01/12 07:13:18;;;;;;;5.97;1.58;;;9.30;99.90;;;;;;6247270;22;20016;-84
2023/01/12 07:15:44;;;;;;;6.88;2.30;;;10.00;99.90;;;;;;6247805;22;20379;-84
2023/01/12 07:18:09;;;;;;;7.25;1.77;;;10.40;99.90;;;;;;6247603;22;20020;-84
2023/01/12 07:20:35;;;;;;;8.45;2.67;;;10.00;99.90;;;;;;6247679;22;20445;-83
2023/01/12 07:23:01;;;;;;;9.85;2.10;;;10.00;99.90;;;;;;6248066;22;20011;-84
2023/01/12 07:25:26;;;;;;;15.02;2.30;;;10.20;99.90;;;;;;6274669;22;20658;-88
2023/01/12 07:27:57;;;;;;;9.98;2.08;;;10.10;99.90;;;;;;6275043;22;20016;-87
2023/01/12 07:30:24;;;;;;;10.85;1.75;;;9.50;99.90;;;;;;6274545;22;20078;-85
2023/01/12 07:32:50;;;;;;;16.45;3.13;;;10.00;99.90;;;;;;6247369;22;20345;-83
2023/01/12 07:35:17;;;;;;;20.90;3.05;;;10.40;99.90;;;;;;6273099;22;20047;-83
2023/01/12 07:37:47;;;;;;;21.05;3.03;;;10.60;99.90;;;;;;6294990;22;20488;-86
2023/01/12 07:40:13;;;;;;;12.68;2.45;;;10.70;99.90;;;;;;6305489;22;20094;-84
2023/01/12 07:42:39;;;;;;;17.70;2.67;;;9.70;99.90;;;;;;6305588;22;20057;-87
2023/01/12 07:45:05;;;;;;;20.98;2.55;;;10.80;99.90;;;;;;6302714;22;20479;-85
2023/01/12 07:47:31;;;;;;;21.58;3.40;;;9.80;99.90;;;;;;6306254;22;20090;-82
2023/01/12 07:49:56;;;;;;;13.18;2.40;;;9.90;99.90;;;;;;6304170;22;20501;-82
2023/01/12 07:52:22;;;;;;;20.25;3.38;;;10.70;99.90;;;;;;6278898;22;20092;-84
2023/01/12 07:54:48;;;;;;;22.98;3.45;;;10.50;99.90;;;;;;6305503;22;20104;-85
2023/01/12 07:57:17;;;;;;;12.88;3.08;;;10.00;99.90;;;;;;6253245;22;20022;-84
2023/01/12 07:59:42;;;;;;;18.60;2.95;;;10.80;99.90;;;;;;6304830;22;20011;-84
2023/01/12 08:02:15;;;;;;;17.20;2.78;;;10.70;99.90;;;;;;6307761;22;20037;-85
2023/01/12 08:04:41;;;;;;;22.52;3.47;;;10.70;99.90;;;;;;6280111;22;20015;-85
2023/01/12 08:07:07;;;;;;;17.77;3.40;;;10.00;99.90;;;;;;6304932;22;20057;-84
2023/01/12 08:09:33;;;;;;;28.10;3.83;;;11.00;99.90;;;;;;6307573;22;20011;-83
2023/01/12 08:11:58;;;;;;;23.88;2.88;;;11.00;99.90;;;;;;6306814;22;20499;-87
2023/01/12 08:14:32;;;;;;;18.60;3.72;;;10.10;99.90;;;;;;6279027;22;20516;-84
2023/01/12 08:17:01;;;;;;;25.95;2.60;;;10.20;99.90;;;;;;6306490;22;20011;-84
2023/01/12 08:19:37;;;;;;;19.48;3.25;;;10.60;99.90;;;;;;6306592;22;20019;-85
2023/01/12 08:22:06;;;;;;;23.52;3.17;;;10.60;99.90;;;;;;6278605;22;20486;-84
2023/01/12 08:24:37;;;;;;;23.40;3.58;;;11.00;99.90;;;;;;6305588;22;20023;-84
2023/01/12 08:27:06;;;;;;;26.02;3.85;;;11.00;99.90;;;;;;6278186;22;20090;-86
2023/01/12 08:29:38;;;;;;;22.80;3.15;;;11.10;99.90;;;;;;6278525;22;20019;-86
2023/01/12 08:32:05;;;;;;;25.15;3.70;;;11.00;99.90;;;;;;6305131;22;20022;-87
2023/01/12 08:34:33;;;;;;;21.55;3.90;;;10.80;99.90;;;;;;6305703;22;20455;-87
2023/01/12 08:37:04;;;;;;;17.50;4.38;;;10.90;99.90;;;;;;6304871;22;20086;-82
2023/01/12 08:39:30;;;;;;;21.35;3.90;;;10.40;99.90;;;;;;6303857;22;20019;-86
2023/01/12 08:41:56;;;;;;;18.10;2.88;;;10.70;99.90;;;;;;6245116;22;20109;-81
2023/01/12 08:44:21;;;;;;;19.33;2.90;;;10.30;99.90;;;;;;6276638;22;20016;-85
2023/01/12 08:46:50;;;;;;;25.30;3.15;;;10.70;99.90;;;;;;6302489;22;20026;-82
2023/01/12 08:49:19;;;;;;;17.55;3.28;;;10.80;99.90;;;;;;6306472;22;20038;-85
2023/01/12 08:51:45;;;;;;;18.90;2.33;;;10.40;99.90;;;;;;6274552;22;20019;-84
2023/01/12 08:54:13;;;;;;;15.38;2.95;;;10.80;99.90;;;;;;6300585;22;20094;-87
2023/01/12 08:56:38;;;;;;;19.10;3.65;;;10.40;99.90;;;;;;6278408;22;20565;-83
2023/01/12 08:59:04;;;;;;;17.40;3.63;;;11.30;99.90;;;;;;6302151;22;20015;-93
2023/01/12 09:01:32;;;;;;;21.52;2.95;;;10.50;99.90;;;;;;6307876;22;20022;-92
2023/01/12 09:03:58;;;;;;;19.40;3.38;;;10.40;99.90;;;;;;6306071;22;20054;-94
2023/01/12 09:06:29;;;;;;;23.88;3.33;;;10.90;99.90;;;;;;6308311;22;20045;-94
2023/01/12 09:09:01;;;;;;;28.92;4.28;;;10.90;99.90;;;;;;6307868;22;20086;-89
2023/01/12 09:11:29;;;;;;;14.27;2.85;;;10.40;99.90;;;;;;6307846;22;20076;-92
2023/01/12 09:13:57;;;;;;;13.43;2.45;;;11.20;99.90;;;;;;6282972;22;20058;-91
2023/01/12 09:16:24;;;;;;;17.52;2.92;;;11.20;99.90;;;;;;6308539;22;20023;-88
2023/01/12 09:18:49;;;;;;;23.25;3.53;;;11.00;99.90;;;;;;6306971;22;20027;-93
2023/01/12 09:21:18;;;;;;;18.90;2.80;;;10.50;99.90;;;;;;6279906;22;20023;-92
2023/01/12 09:23:44;;;;;;;18.48;2.90;;;10.60;99.90;;;;;;6307839;22;20100;-89
2023/01/12 09:26:16;;;;;;;17.02;3.00;;;10.50;99.90;;;;;;6307379;22;20026;-93
2023/01/12 09:28:44;;;;;;;21.13;3.15;;;11.00;99.90;;;;;;6279805;22;20118;-92
2023/01/12 09:31:16;;;;;;;21.92;3.65;;;11.10;99.90;;;;;;6279832;22;20023;-88
2023/01/12 09:34:00;;;;;;;16.67;2.47;;;10.90;99.90;;;;;;6280710;22;20019;-94
2023/01/12 09:36:28;;;;;;;24.53;3.47;;;10.90;99.90;;;;;;6279355;22;20027;-92
2023/01/12 09:38:55;;;;;;;21.88;3.08;;;10.60;99.90;;;;;;6306101;22;20534;-95
2023/01/12 09:47:15;;;;;;;15.67;2.23;;;10.70;99.90;;;;;;6308159;22;20564;-87
2023/01/12 09:49:49;;;;;;;23.88;3.35;;;10.70;99.90;;;;;;6307481;22;20097;-88
2023/01/12 09:52:19;;;;;;;18.27;2.65;;;10.90;99.90;;;;;;6306638;22;20011;-89
2023/01/12 09:54:48;;;;;;;18.33;3.47;;;11.30;99.90;;;;;;6304202;22;20639;-83
2023/01/12 09:57:38;;;;;;;14.98;3.20;;;11.60;99.90;;;;;;6305399;22;20023;-86
2023/01/12 10:00:50;;;;;;;17.10;2.95;;;10.70;99.90;;;;;;6276776;22;20023;-86
2023/01/12 10:03:37;;;;;;;15.13;2.25;;;10.50;99.90;;;;;;6258566;22;20023;-83
2023/01/12 10:06:13;;;;;;;16.88;3.40;;;10.30;99.90;;;;;;6304315;22;20023;-90
2023/01/12 10:09:01;;;;;;;11.32;2.38;;;10.80;99.90;;;;;;6303984;22;20015;-84
2023/01/12 10:11:46;;;;;;;40.08;11.73;;;10.90;99.90;;;;;;6300368;22;20030;-82
2023/01/12 10:14:33;;;;;;;37.85;9.60;;;11.30;99.90;;;;;;6302638;22;20068;-87
2023/01/12 10:17:24;;;;;;;29.10;7.55;;;11.00;99.90;;;;;;6302525;22;20438;-83
2023/01/12 10:20:14;;;;;;;15.45;2.47;;;11.00;99.90;;;;;;6274689;22;20513;-82
2023/01/12 10:22:57;;;;;;;13.98;2.70;;;11.00;99.90;;;;;;6302988;22;20072;-83
2023/01/12 10:25:41;;;;;;;15.45;2.58;;;11.40;99.90;;;;;;6274474;22;20441;-85
2023/01/12 10:28:28;;;;;;;20.38;3.05;;;11.10;99.90;;;;;;6303505;22;20068;-82
2023/01/12 10:30:54;;;;;;;16.58;3.10;;;11.40;99.90;;;;;;6303215;22;20019;-86
2023/01/12 10:33:31;;;;;;;17.42;2.25;;;11.10;99.90;;;;;;6275237;22;20018;-84
2023/01/12 10:36:44;;;;;;;13.98;2.65;;;11.30;99.90;;;;;;6302937;22;20115;-86
2023/01/12 10:44:21;;;;;;;14.73;2.75;;;11.00;99.90;;;;;;6271581;22;20322;-83
2023/01/12 11:06:15;;;;;;;14.73;2.83;;;11.20;99.90;;;;;;6267165;22;20387;-83
2023/01/12 11:08:41;;;;;;;17.70;4.70;;;11.20;99.90;;;;;;6185303;23;20044;-85
2023/01/12 11:11:31;;;;;;;20.05;3.45;;;11.30;99.90;;;;;;6178914;23;20023;-86
2023/01/12 11:14:02;;;;;;;27.67;8.10;;;11.30;99.90;;;;;;6065676;23;20030;-88
2023/01/12 11:16:42;;;;;;;18.95;4.90;;;11.30;99.90;;;;;;6089787;23;20162;-83
2023/01/12 11:19:16;;;;;;;14.68;3.55;;;11.30;99.90;;;;;;6089956;23;20014;-87
2023/01/12 11:21:56;;;;;;;19.55;4.05;;;11.30;99.90;;;;;;6090431;23;20022;-83
2023/01/12 11:25:04;;;;;;;20.30;4.40;;;11.30;99.90;;;;;;6089946;23;20026;-84
2023/01/12 11:27:43;;;;;;;20.58;3.80;;;11.30;99.90;;;;;;6008371;23;20103;-84
2023/01/12 11:30:22;;;;;;;13.57;2.53;;;11.40;99.90;;;;;;6044586;23;20098;-84
2023/01/12 11:33:23;;;;;;;11.82;2.17;;;11.40;99.90;;;;;;6060802;23;20022;-86
2023/01/12 11:36:05;;;;;;;22.00;5.55;;;11.30;99.90;;;;;;5981886;23;20067;-85
2023/01/12 11:38:46;;;;;;;14.50;2.95;;;11.40;99.90;;;;;;6005879;23;20024;-83
2023/01/12 11:41:24;;;;;;;14.98;3.75;;;11.40;99.90;;;;;;6006301;23;20098;-85
2023/01/12 11:44:02;;;;;;;22.02;4.85;;;12.30;99.90;;;;;;6005763;23;20035;-86
2023/01/12 11:46:34;;;;;;;15.02;2.47;;;11.80;99.90;;;;;;5982786;23;20020;-87
2023/01/12 11:49:25;;;;;;;12.45;2.50;;;12.00;99.90;;;;;;5982940;23;20206;-83
2023/01/12 11:51:57;;;;;;;16.33;2.33;;;11.60;99.90;;;;;;6080556;23;20022;-86
2023/01/12 11:54:26;;;;;;;22.70;2.53;;;12.00;99.90;;;;;;6121022;23;20026;-84
2023/01/12 11:57:06;;;;;;;11.55;2.78;;;11.60;99.90;;;;;;6121718;23;20026;-86
2023/01/12 11:59:37;;;;;;;14.75;2.15;;;11.60;99.90;;;;;;6121431;23;20053;-83
2023/01/12 12:02:14;;;;;;;15.48;2.40;;;11.60;99.90;;;;;;6096058;23;20471;-85
2023/01/12 12:04:51;;;;;;;10.10;1.92;;;11.60;99.90;;;;;;6121250;23;20030;-83
2023/01/12 12:07:39;;;;;;;11.68;2.60;;;11.90;99.90;;;;;;6121188;23;20022;-86
2023/01/12 12:10:34;;;;;;;15.43;2.83;;;11.60;99.90;;;;;;6175437;23;20025;-84
2023/01/12 12:13:18;;;;;;;15.48;1.98;;;11.60;99.90;;;;;;6185268;23;20032;-87
2023/01/12 12:16:06;;;;;;;12.67;3.63;;;11.60;99.90;;;;;;6213375;23;20020;-86
2023/01/12 12:18:50;;;;;;;18.73;2.72;;;11.50;99.90;;;;;;6186586;23;20095;-86
2023/01/12 12:21:28;;;;;;;14.25;2.40;;;12.40;99.90;;;;;;6210042;23;20100;-82
2023/01/12 12:24:27;;;;;;;12.80;2.60;;;12.00;99.90;;;;;;6186132;23;20515;-83
2023/01/12 12:27:13;;;;;;;20.48;3.28;;;11.40;99.90;;;;;;6186346;23;20132;-88
2023/01/12 12:30:07;;;;;;;34.55;14.57;;;11.40;99.90;;;;;;6213101;23;20020;-86
2023/01/12 12:32:58;;;;;;;22.77;7.65;;;11.40;99.90;;;;;;6186413;23;20346;-85
2023/01/12 12:35:42;;;;;;;19.40;4.93;;;12.10;99.90;;;;;;6186423;23;20052;-86
2023/01/12 12:38:33;;;;;;;23.02;2.45;;;12.30;99.90;;;;;;6186219;23;20151;-87
2023/01/12 12:47:28;;;;;;;18.38;2.65;;;11.40;99.90;;;;;;6186262;23;20031;-85
2023/01/12 12:49:56;;;;;;;17.25;4.65;;;11.40;99.90;;;;;;6213188;23;20062;-85
2023/01/12 12:52:24;;;;;;;23.33;5.13;;;11.40;99.90;;;;;;6213001;23;20020;-85
2023/01/12 12:54:52;;;;;;;18.58;3.13;;;12.20;99.90;;;;;;6213178;23;20047;-86
2023/01/12 12:57:18;;;;;;;20.98;3.55;;;11.60;99.90;;;;;;6185539;23;20021;-83
2023/01/12 13:00:01;;;;;;;14.45;2.75;;;10.90;99.90;;;;;;6186987;23;20035;-87
2023/01/12 13:02:38;;;;;;;20.83;2.60;;;11.40;99.90;;;;;;6161306;23;20017;-83
2023/01/12 13:05:07;;;;;;;15.65;2.42;;;11.40;99.90;;;;;;6186001;23;20136;-87
2023/01/12 13:07:40;;;;;;;18.13;2.50;;;11.40;99.90;;;;;;6186621;23;20027;-81
2023/01/12 13:10:19;;;;;;;11.63;2.83;;;11.30;99.90;;;;;;6186006;23;20059;-87
2023/01/12 13:13:00;;;;;;;10.88;2.30;;;11.30;99.90;;;;;;6186133;23;20124;-85
2023/01/12 13:15:35;;;;;;;18.45;3.33;;;11.30;99.90;;;;;;6212806;23;20067;-88
2023/01/12 13:18:01;;;;;;;22.65;3.42;;;11.70;99.90;;;;;;6186693;23;20535;-85
2023/01/12 13:20:55;;;;;;;18.83;2.70;;;11.90;99.90;;;;;;6213118;23;20338;-85
2023/01/12 13:23:40;;;;;;;20.83;2.78;;;11.30;99.90;;;;;;6181299;23;20024;-86
2023/01/12 13:26:36;;;;;;;18.08;2.75;;;11.50;99.90;;;;;;6185898;23;20017;-86
2023/01/12 13:29:26;;;;;;;12.80;2.13;;;11.30;99.90;;;;;;6209134;23;20020;-85
2023/01/12 13:32:21;;;;;;;22.60;3.25;;;11.30;99.90;;;;;;6212769;23;20373;-85
2023/01/12 13:34:50;;;;;;;20.60;2.85;;;11.30;99.90;;;;;;6212035;23;20046;-85
2023/01/12 13:37:23;;;;;;;19.88;2.65;;;11.30;99.90;;;;;;6211640;23;20024;-88
2023/01/12 13:40:03;;;;;;;18.25;2.65;;;11.30;99.90;;;;;;6212401;23;20024;-88
2023/01/12 13:45:18;;;;;;;20.33;3.35;;;11.80;99.90;;;;;;6184809;23;20033;-88
2023/01/12 13:47:46;;;;;;;18.05;3.28;;;10.60;99.90;;;;;;6212008;23;20477;-84
2023/01/12 13:50:24;;;;;;;22.17;2.92;;;11.20;99.90;;;;;;6212004;23;20024;-88
2023/01/12 13:53:01;;;;;;;18.77;2.92;;;11.50;99.90;;;;;;6211743;23;20765;-87
2023/01/12 13:55:30;;;;;;;22.63;3.58;;;11.60;99.90;;;;;;6210112;23;20020;-85
2023/01/12 13:58:09;;;;;;;28.67;3.90;;;12.10;99.90;;;;;;6209779;23;20027;-88
2023/01/12 14:00:35;;;;;;;19.70;4.03;;;11.10;99.90;;;;;;6209577;23;20485;-82
2023/01/12 14:03:03;;;;;;;22.17;3.60;;;11.90;99.90;;;;;;6184982;23;20441;-88
2023/01/12 14:05:50;;;;;;;24.63;3.90;;;11.10;99.90;;;;;;6211631;23;20020;-84
2023/01/12 14:08:50;;;;;;;27.20;3.78;;;11.10;99.90;;;;;;6184590;23;20024;-85
2023/01/12 14:11:33;;;;;;;34.50;4.82;;;11.10;99.90;;;;;;6212037;23;20027;-86
2023/01/12 14:20:16;;;;;;;26.88;4.57;;;11.10;99.90;;;;;;6185462;23;20048;-87
2023/01/12 14:22:44;;;;;;;22.27;3.30;;;11.00;99.90;;;;;;6211870;23;20024;-85
2023/01/12 14:25:18;;;;;;;29.05;4.55;;;10.40;99.90;;;;;;6212021;23;20020;-84
2023/01/12 14:27:51;;;;;;;28.98;4.93;;;11.90;99.90;;;;;;6211800;23;20027;-84
2023/01/12 14:30:18;;;;;;;26.23;4.22;;;11.60;99.90;;;;;;6211134;23;20043;-85
2023/01/12 14:32:46;;;;;;;23.90;4.00;;;11.40;99.90;;;;;;6211628;23;20078;-86
2023/01/12 14:35:53;;;;;;;27.48;4.25;;;10.90;99.90;;;;;;6209489;23;20032;-85